sensor_id;sensor_type;location;lat;lon;timestamp;temperature;humidity
42201;DHT22;27869;51.442;7.540;2023-03-01T00:01:37;-1.30;99.90
42201;DHT22;27869;51.442;7.540;2023-03-01T00:04:03;-1.30;99.90
42201;DHT22;27869;51.442;7.540;2023-03-01T00:06:33;-1.30;99.90
42201;DHT22;27869;51.442;7.540;2023-03-01T00:09:00;-1.30;99.90
42201;DHT22;27869;51.442;7.540;2023-03-01T00:11:30;-1.30;99.90
42201;DHT22;27869;51.442;7.540;2023-03-01T00:13:57;-1.30;99.90
42201;DHT22;27869;51.442;7.540;2023-03-01T00:16:27;-1.30;99.90
42201;DHT22;27869;51.442;7.540;2023-03-01T00:18:55;-1.40;99.90
42201;DHT22;27869;51.442;7.540;2023-03-01T00:21:22;-1.40;99.90
42201;DHT22;27869;51.442;7.540;2023-03-01T00:23:50;-1.40;99.90
42201;DHT22;27869;51.442;7.540;2023-03-01T00:26:18;-1.40;99.90
42201;DHT22;27869;51.442;7.540;2023-03-01T00:28:47;-1.50;99.90
42201;DHT22;27869;51.442;7.540;2023-03-01T00:31:15;-1.50;99.90
42201;DHT22;27869;51.442;7.540;2023-03-01T00:33:43;-1.50;99.90
42201;DHT22;27869;51.442;7.540;2023-03-01T00:36:11;-1.50;99.90
42201;DHT22;27869;51.442;7.540;2023-03-01T00:38:40;-1.50;99.90
42201;DHT22;27869;51.442;7.540;2023-03-01T00:41:09;-1.60;99.90
42201;DHT22;27869;51.442;7.540;2023-03-01T00:43:36;-1.60;99.90
42201;DHT22;27869;51.442;7.540;2023-03-01T00:46:05;-1.60;99.90
42201;DHT22;27869;51.442;7.540;2023-03-01T00:48:33;-1.60;99.90
42201;DHT22;27869;51.442;7.540;2023-03-01T00:51:04;-1.60;99.90
42201;DHT22;27869;51.442;7.540;2023-03-01T00:53:32;-1.70;99.90
42201;DHT22;27869;51.442;7.540;2023-03-01T00:55:59;-1.70;99.90
42201;DHT22;27869;51.442;7.540;2023-03-01T00:58:26;-1.70;99.90
42201;DHT22;27869;51.442;7.540;2023-03-01T01:00:53;-1.80;99.90
42201;DHT22;27869;51.442;7.540;2023-03-01T01:03:21;-1.70;99.90
42201;DHT22;27869;51.442;7.540;2023-03-01T01:05:50;-1.80;99.90
42201;DHT22;27869;51.442;7.540;2023-03-01T01:08:17;-1.80;99.90
42201;DHT22;27869;51.442;7.540;2023-03-01T01:10:44;-1.90;99.90
42201;DHT22;27869;51.442;7.540;2023-03-01T01:13:12;-1.90;99.90
42201;DHT22;27869;51.442;7.540;2023-03-01T01:15:39;-1.90;99.90
42201;DHT22;27869;51.442;7.540;2023-03-01T01:18:07;-1.90;99.90
42201;DHT22;27869;51.442;7.540;2023-03-01T01:20:36;-1.90;99.90
42201;DHT22;27869;51.442;7.540;2023-03-01T01:23:05;-2.00;99.90
42201;DHT22;27869;51.442;7.540;2023-03-01T01:25:35;-2.00;99.90
42201;DHT22;27869;51.442;7.540;2023-03-01T01:28:02;-2.00;99.90
42201;DHT22;27869;51.442;7.540;2023-03-01T01:30:29;-2.10;99.90
42201;DHT22;27869;51.442;7.540;2023-03-01T01:32:56;-2.10;99.90
42201;DHT22;27869;51.442;7.540;2023-03-01T01:35:23;-2.20;99.90
42201;DHT22;27869;51.442;7.540;2023-03-01T01:37:51;-2.20;99.90
42201;DHT22;27869;51.442;7.540;2023-03-01T01:40:18;-2.20;99.90
42201;DHT22;27869;51.442;7.540;2023-03-01T01:42:45;-2.20;99.90
42201;DHT22;27869;51.442;7.540;2023-03-01T01:45:28;-2.30;99.90
42201;DHT22;27869;51.442;7.540;2023-03-01T01:47:57;-2.30;99.90
42201;DHT22;27869;51.442;7.540;2023-03-01T01:50:25;-2.30;99.90
42201;DHT22;27869;51.442;7.540;2023-03-01T01:52:54;-2.30;99.90
42201;DHT22;27869;51.442;7.540;2023-03-01T01:55:25;-2.30;99.90
42201;DHT22;27869;51.442;7.540;2023-03-01T01:57:55;-2.30;99.90
42201;DHT22;27869;51.442;7.540;2023-03-01T02:00:24;-2.30;99.90
42201;DHT22;27869;51.442;7.540;2023-03-01T02:03:03;-2.30;99.90
42201;DHT22;27869;51.442;7.540;2023-03-01T02:05:35;-2.30;99.90
42201;DHT22;27869;51.442;7.540;2023-03-01T02:08:05;-2.40;99.90
42201;DHT22;27869;51.442;7.540;2023-03-01T02:10:33;-2.40;99.90
42201;DHT22;27869;51.442;7.540;2023-03-01T02:13:01;-2.40;99.90
42201;DHT22;27869;51.442;7.540;2023-03-01T02:15:33;-2.40;99.90
42201;DHT22;27869;51.442;7.540;2023-03-01T02:18:01;-2.50;99.90
42201;DHT22;27869;51.442;7.540;2023-03-01T02:20:34;-2.50;99.90
42201;DHT22;27869;51.442;7.540;2023-03-01T02:23:04;-2.50;99.90
42201;DHT22;27869;51.442;7.540;2023-03-01T02:25:38;-2.50;99.90
42201;DHT22;27869;51.442;7.540;2023-03-01T02:28:19;-2.60;99.90
42201;DHT22;27869;51.442;7.540;2023-03-01T02:30:48;-2.60;99.90
42201;DHT22;27869;51.442;7.540;2023-03-01T02:33:35;-2.60;99.90
42201;DHT22;27869;51.442;7.540;2023-03-01T02:36:04;-2.60;99.90
42201;DHT22;27869;51.442;7.540;2023-03-01T02:38:32;-2.60;99.90
42201;DHT22;27869;51.442;7.540;2023-03-01T02:41:00;-2.60;99.90
42201;DHT22;27869;51.442;7.540;2023-03-01T02:43:31;-2.70;99.90
42201;DHT22;27869;51.442;7.540;2023-03-01T02:45:59;-2.70;99.90
42201;DHT22;27869;51.442;7.540;2023-03-01T02:48:42;-2.70;99.90
42201;DHT22;27869;51.442;7.540;2023-03-01T02:51:24;-2.70;99.90
42201;DHT22;27869;51.442;7.540;2023-03-01T02:53:59;-2.80;99.90
42201;DHT22;27869;51.442;7.540;2023-03-01T02:56:28;-2.80;99.90
42201;DHT22;27869;51.442;7.540;2023-03-01T02:58:57;-2.80;99.90
42201;DHT22;27869;51.442;7.540;2023-03-01T03:01:27;-2.80;99.90
42201;DHT22;27869;51.442;7.540;2023-03-01T03:04:06;-2.90;99.90
42201;DHT22;27869;51.442;7.540;2023-03-01T03:06:33;-2.90;99.90
42201;DHT22;27869;51.442;7.540;2023-03-01T03:09:00;-2.90;99.90
42201;DHT22;27869;51.442;7.540;2023-03-01T03:11:27;-2.90;99.90
42201;DHT22;27869;51.442;7.540;2023-03-01T03:13:54;-3.00;99.90
42201;DHT22;27869;51.442;7.540;2023-03-01T03:16:22;-3.00;99.90
42201;DHT22;27869;51.442;7.540;2023-03-01T03:18:50;-3.00;99.90
42201;DHT22;27869;51.442;7.540;2023-03-01T03:21:17;-3.00;99.90
42201;DHT22;27869;51.442;7.540;2023-03-01T03:23:44;-3.10;99.90
42201;DHT22;27869;51.442;7.540;2023-03-01T03:26:11;-3.10;99.90
42201;DHT22;27869;51.442;7.540;2023-03-01T03:28:40;-3.10;99.90
42201;DHT22;27869;51.442;7.540;2023-03-01T03:31:08;-3.10;99.90
42201;DHT22;27869;51.442;7.540;2023-03-01T03:33:36;-3.20;99.90
42201;DHT22;27869;51.442;7.540;2023-03-01T03:36:04;-3.20;99.90
42201;DHT22;27869;51.442;7.540;2023-03-01T03:38:31;-3.20;99.90
42201;DHT22;27869;51.442;7.540;2023-03-01T03:41:01;-3.20;99.90
42201;DHT22;27869;51.442;7.540;2023-03-01T03:43:30;-3.20;99.90
42201;DHT22;27869;51.442;7.540;2023-03-01T03:45:57;-3.20;99.90
42201;DHT22;27869;51.442;7.540;2023-03-01T03:48:24;-3.20;99.90
42201;DHT22;27869;51.442;7.540;2023-03-01T03:50:54;-3.20;99.90
42201;DHT22;27869;51.442;7.540;2023-03-01T03:53:23;-3.20;99.90
42201;DHT22;27869;51.442;7.540;2023-03-01T03:55:50;-3.30;99.90
42201;DHT22;27869;51.442;7.540;2023-03-01T03:58:18;-3.30;99.90
42201;DHT22;27869;51.442;7.540;2023-03-01T04:00:47;-3.30;99.90
42201;DHT22;27869;51.442;7.540;2023-03-01T04:03:16;-3.30;99.90
42201;DHT22;27869;51.442;7.540;2023-03-01T04:05:44;-3.40;99.90
42201;DHT22;27869;51.442;7.540;2023-03-01T04:08:13;-3.40;99.90
42201;DHT22;27869;51.442;7.540;2023-03-01T04:10:42;-3.40;99.90
42201;DHT22;27869;51.442;7.540;2023-03-01T04:13:11;-3.40;99.90
42201;DHT22;27869;51.442;7.540;2023-03-01T04:15:39;-3.40;99.90
42201;DHT22;27869;51.442;7.540;2023-03-01T04:18:07;-3.40;99.90
42201;DHT22;27869;51.442;7.540;2023-03-01T04:20:35;-3.40;99.90
42201;DHT22;27869;51.442;7.540;2023-03-01T04:23:04;-3.40;99.90
42201;DHT22;27869;51.442;7.540;2023-03-01T04:25:41;-3.50;99.90
42201;DHT22;27869;51.442;7.540;2023-03-01T04:28:09;-3.50;99.90
42201;DHT22;27869;51.442;7.540;2023-03-01T04:30:36;-3.50;99.90
42201;DHT22;27869;51.442;7.540;2023-03-01T04:33:05;-3.60;99.90
42201;DHT22;27869;51.442;7.540;2023-03-01T04:35:32;-3.50;99.90
42201;DHT22;27869;51.442;7.540;2023-03-01T04:38:00;-3.50;99.90
42201;DHT22;27869;51.442;7.540;2023-03-01T04:40:27;-3.50;99.90
42201;DHT22;27869;51.442;7.540;2023-03-01T04:42:55;-3.60;99.90
42201;DHT22;27869;51.442;7.540;2023-03-01T04:45:22;-3.60;99.90
42201;DHT22;27869;51.442;7.540;2023-03-01T04:47:49;-3.60;99.90
42201;DHT22;27869;51.442;7.540;2023-03-01T04:50:18;-3.60;99.90
42201;DHT22;27869;51.442;7.540;2023-03-01T04:52:48;-3.60;99.90
42201;DHT22;27869;51.442;7.540;2023-03-01T04:55:15;-3.70;99.90
42201;DHT22;27869;51.442;7.540;2023-03-01T04:57:42;-3.70;99.90
42201;DHT22;27869;51.442;7.540;2023-03-01T05:00:13;-3.70;99.90
42201;DHT22;27869;51.442;7.540;2023-03-01T05:02:50;-3.70;99.90
42201;DHT22;27869;51.442;7.540;2023-03-01T05:05:20;-3.70;99.90
42201;DHT22;27869;51.442;7.540;2023-03-01T05:07:51;-3.70;99.90
42201;DHT22;27869;51.442;7.540;2023-03-01T05:10:18;-3.70;99.90
42201;DHT22;27869;51.442;7.540;2023-03-01T05:12:45;-3.70;99.90
42201;DHT22;27869;51.442;7.540;2023-03-01T05:15:14;-3.70;99.90
42201;DHT22;27869;51.442;7.540;2023-03-01T05:17:41;-3.70;99.90
42201;DHT22;27869;51.442;7.540;2023-03-01T05:20:09;-3.70;99.90
42201;DHT22;27869;51.442;7.540;2023-03-01T05:22:36;-3.80;99.90
42201;DHT22;27869;51.442;7.540;2023-03-01T05:25:04;-3.80;99.90
42201;DHT22;27869;51.442;7.540;2023-03-01T05:27:31;-3.80;99.90
42201;DHT22;27869;51.442;7.540;2023-03-01T05:29:58;-3.90;99.90
42201;DHT22;27869;51.442;7.540;2023-03-01T05:32:26;-3.90;99.90
42201;DHT22;27869;51.442;7.540;2023-03-01T05:34:56;-3.90;99.90
42201;DHT22;27869;51.442;7.540;2023-03-01T05:37:23;-3.90;99.90
42201;DHT22;27869;51.442;7.540;2023-03-01T05:39:50;-4.00;99.90
42201;DHT22;27869;51.442;7.540;2023-03-01T05:42:17;-4.00;99.90
42201;DHT22;27869;51.442;7.540;2023-03-01T05:44:44;-4.00;99.90
42201;DHT22;27869;51.442;7.540;2023-03-01T05:47:10;-4.00;99.90
42201;DHT22;27869;51.442;7.540;2023-03-01T05:49:39;-4.00;99.90
42201;DHT22;27869;51.442;7.540;2023-03-01T05:52:06;-4.00;99.90
42201;DHT22;27869;51.442;7.540;2023-03-01T05:54:33;-4.10;99.90
42201;DHT22;27869;51.442;7.540;2023-03-01T05:57:00;-4.10;99.90
42201;DHT22;27869;51.442;7.540;2023-03-01T05:59:26;-4.10;99.90
42201;DHT22;27869;51.442;7.540;2023-03-01T06:01:53;-4.10;99.90
42201;DHT22;27869;51.442;7.540;2023-03-01T06:04:20;-4.10;99.90
42201;DHT22;27869;51.442;7.540;2023-03-01T06:06:48;-4.20;99.90
42201;DHT22;27869;51.442;7.540;2023-03-01T06:09:15;-4.20;99.90
42201;DHT22;27869;51.442;7.540;2023-03-01T06:11:42;-4.20;99.90
42201;DHT22;27869;51.442;7.540;2023-03-01T06:14:09;-4.10;99.90
42201;DHT22;27869;51.442;7.540;2023-03-01T06:16:38;-4.10;99.90
42201;DHT22;27869;51.442;7.540;2023-03-01T06:19:05;-4.20;99.90
42201;DHT22;27869;51.442;7.540;2023-03-01T06:21:32;-4.20;99.90
42201;DHT22;27869;51.442;7.540;2023-03-01T06:24:00;-4.20;99.90
42201;DHT22;27869;51.442;7.540;2023-03-01T06:26:27;-4.20;99.90
42201;DHT22;27869;51.442;7.540;2023-03-01T06:28:54;-4.30;99.90
42201;DHT22;27869;51.442;7.540;2023-03-01T06:31:21;-4.30;99.90
42201;DHT22;27869;51.442;7.540;2023-03-01T06:33:47;-4.30;99.90
42201;DHT22;27869;51.442;7.540;2023-03-01T06:36:14;-4.30;99.90
42201;DHT22;27869;51.442;7.540;2023-03-01T06:38:44;-4.30;99.90
42201;DHT22;27869;51.442;7.540;2023-03-01T06:41:12;-4.30;99.90
42201;DHT22;27869;51.442;7.540;2023-03-01T06:43:39;-4.30;99.90
42201;DHT22;27869;51.442;7.540;2023-03-01T06:46:06;-4.30;99.90
42201;DHT22;27869;51.442;7.540;2023-03-01T06:48:33;-4.30;99.90
42201;DHT22;27869;51.442;7.540;2023-03-01T06:51:01;-4.30;99.90
42201;DHT22;27869;51.442;7.540;2023-03-01T06:53:28;-4.30;99.90
42201;DHT22;27869;51.442;7.540;2023-03-01T06:55:55;-4.30;99.90
42201;DHT22;27869;51.442;7.540;2023-03-01T06:58:24;-4.30;99.90
42201;DHT22;27869;51.442;7.540;2023-03-01T07:00:51;-4.20;99.90
42201;DHT22;27869;51.442;7.540;2023-03-01T07:03:18;-4.20;99.90
42201;DHT22;27869;51.442;7.540;2023-03-01T07:05:47;-4.20;99.90
42201;DHT22;27869;51.442;7.540;2023-03-01T07:08:14;-4.10;99.90
42201;DHT22;27869;51.442;7.540;2023-03-01T07:10:41;-4.10;99.90
42201;DHT22;27869;51.442;7.540;2023-03-01T07:13:08;-4.10;99.90
42201;DHT22;27869;51.442;7.540;2023-03-01T07:15:36;-4.00;99.90
42201;DHT22;27869;51.442;7.540;2023-03-01T07:18:03;-4.00;99.90
42201;DHT22;27869;51.442;7.540;2023-03-01T07:20:30;-3.90;99.90
42201;DHT22;27869;51.442;7.540;2023-03-01T07:22:57;-3.90;99.90
42201;DHT22;27869;51.442;7.540;2023-03-01T07:25:24;-3.90;99.90
42201;DHT22;27869;51.442;7.540;2023-03-01T07:27:52;-3.80;99.90
42201;DHT22;27869;51.442;7.540;2023-03-01T07:30:20;-3.70;99.90
42201;DHT22;27869;51.442;7.540;2023-03-01T07:32:48;-3.70;99.90
42201;DHT22;27869;51.442;7.540;2023-03-01T07:35:15;-3.60;99.90
42201;DHT22;27869;51.442;7.540;2023-03-01T07:37:42;-3.60;99.90
42201;DHT22;27869;51.442;7.540;2023-03-01T07:40:10;-3.50;99.90
42201;DHT22;27869;51.442;7.540;2023-03-01T07:42:37;-3.40;99.90
42201;DHT22;27869;51.442;7.540;2023-03-01T07:45:06;-3.30;99.90
42201;DHT22;27869;51.442;7.540;2023-03-01T07:47:33;-3.20;99.90
42201;DHT22;27869;51.442;7.540;2023-03-01T07:50:01;-3.10;99.90
42201;DHT22;27869;51.442;7.540;2023-03-01T07:52:29;-3.00;99.90
42201;DHT22;27869;51.442;7.540;2023-03-01T07:54:56;-3.00;99.90
42201;DHT22;27869;51.442;7.540;2023-03-01T07:57:23;-2.90;99.90
42201;DHT22;27869;51.442;7.540;2023-03-01T07:59:50;-2.80;99.90
42201;DHT22;27869;51.442;7.540;2023-03-01T08:02:17;-2.70;99.90
42201;DHT22;27869;51.442;7.540;2023-03-01T08:04:44;-2.50;99.90
42201;DHT22;27869;51.442;7.540;2023-03-01T08:07:12;-2.40;99.90
42201;DHT22;27869;51.442;7.540;2023-03-01T08:09:39;-2.30;99.90
42201;DHT22;27869;51.442;7.540;2023-03-01T08:12:06;-2.20;99.90
42201;DHT22;27869;51.442;7.540;2023-03-01T08:14:33;-2.10;99.90
42201;DHT22;27869;51.442;7.540;2023-03-01T08:17:00;-2.00;99.90
42201;DHT22;27869;51.442;7.540;2023-03-01T08:19:28;-1.90;99.90
42201;DHT22;27869;51.442;7.540;2023-03-01T08:21:55;-1.80;99.90
42201;DHT22;27869;51.442;7.540;2023-03-01T08:24:25;-1.70;99.90
42201;DHT22;27869;51.442;7.540;2023-03-01T08:26:52;-1.60;99.90
42201;DHT22;27869;51.442;7.540;2023-03-01T08:29:19;-1.50;99.90
42201;DHT22;27869;51.442;7.540;2023-03-01T08:31:46;-1.40;99.90
42201;DHT22;27869;51.442;7.540;2023-03-01T08:34:15;-1.30;99.90
42201;DHT22;27869;51.442;7.540;2023-03-01T08:36:45;-1.20;99.90
42201;DHT22;27869;51.442;7.540;2023-03-01T08:39:13;-1.10;99.90
42201;DHT22;27869;51.442;7.540;2023-03-01T08:41:42;-1.00;99.90
42201;DHT22;27869;51.442;7.540;2023-03-01T08:44:10;-1.00;99.90
42201;DHT22;27869;51.442;7.540;2023-03-01T08:46:40;-0.80;99.90
42201;DHT22;27869;51.442;7.540;2023-03-01T08:49:07;-0.70;99.90
42201;DHT22;27869;51.442;7.540;2023-03-01T08:51:35;-0.60;99.90
42201;DHT22;27869;51.442;7.540;2023-03-01T08:54:03;-0.50;99.90
42201;DHT22;27869;51.442;7.540;2023-03-01T08:56:30;-0.40;99.90
42201;DHT22;27869;51.442;7.540;2023-03-01T08:58:59;-0.30;99.90
42201;DHT22;27869;51.442;7.540;2023-03-01T09:01:26;-0.20;99.90
42201;DHT22;27869;51.442;7.540;2023-03-01T09:03:53;-0.10;99.90
42201;DHT22;27869;51.442;7.540;2023-03-01T09:06:20;0.00;99.90
42201;DHT22;27869;51.442;7.540;2023-03-01T09:08:48;0.20;99.90
42201;DHT22;27869;51.442;7.540;2023-03-01T09:11:17;0.30;99.90
42201;DHT22;27869;51.442;7.540;2023-03-01T09:13:45;0.40;99.90
42201;DHT22;27869;51.442;7.540;2023-03-01T09:16:15;0.60;99.90
42201;DHT22;27869;51.442;7.540;2023-03-01T09:18:43;0.70;99.90
42201;DHT22;27869;51.442;7.540;2023-03-01T09:21:15;0.80;99.90
42201;DHT22;27869;51.442;7.540;2023-03-01T09:23:43;0.90;99.90
42201;DHT22;27869;51.442;7.540;2023-03-01T09:26:12;1.00;99.90
42201;DHT22;27869;51.442;7.540;2023-03-01T09:28:39;1.20;99.90
42201;DHT22;27869;51.442;7.540;2023-03-01T09:31:06;1.20;99.90
42201;DHT22;27869;51.442;7.540;2023-03-01T09:33:35;1.40;99.90
42201;DHT22;27869;51.442;7.540;2023-03-01T09:36:04;1.50;99.90
42201;DHT22;27869;51.442;7.540;2023-03-01T09:38:33;1.70;99.90
42201;DHT22;27869;51.442;7.540;2023-03-01T09:41:00;1.80;99.90
42201;DHT22;27869;51.442;7.540;2023-03-01T09:43:34;1.90;99.90
42201;DHT22;27869;51.442;7.540;2023-03-01T09:46:09;2.00;99.90
42201;DHT22;27869;51.442;7.540;2023-03-01T09:48:42;2.10;99.90
42201;DHT22;27869;51.442;7.540;2023-03-01T09:51:14;2.30;99.90
42201;DHT22;27869;51.442;7.540;2023-03-01T09:53:41;2.40;99.90
42201;DHT22;27869;51.442;7.540;2023-03-01T09:56:15;2.60;99.90
42201;DHT22;27869;51.442;7.540;2023-03-01T09:58:49;2.70;99.90
42201;DHT22;27869;51.442;7.540;2023-03-01T10:01:27;2.80;99.90
42201;DHT22;27869;51.442;7.540;2023-03-01T10:04:25;2.90;99.90
42201;DHT22;27869;51.442;7.540;2023-03-01T10:07:02;3.00;99.90
42201;DHT22;27869;51.442;7.540;2023-03-01T10:09:34;3.20;99.90
42201;DHT22;27869;51.442;7.540;2023-03-01T10:12:02;3.30;99.90
42201;DHT22;27869;51.442;7.540;2023-03-01T10:14:34;3.40;99.90
42201;DHT22;27869;51.442;7.540;2023-03-01T10:17:04;3.50;99.90
42201;DHT22;27869;51.442;7.540;2023-03-01T10:19:38;3.50;99.90
42201;DHT22;27869;51.442;7.540;2023-03-01T10:22:13;3.60;99.90
42201;DHT22;27869;51.442;7.540;2023-03-01T10:24:40;3.70;99.90
42201;DHT22;27869;51.442;7.540;2023-03-01T10:27:10;3.80;99.90
42201;DHT22;27869;51.442;7.540;2023-03-01T10:29:48;3.80;99.90
42201;DHT22;27869;51.442;7.540;2023-03-01T10:32:17;3.90;99.90
42201;DHT22;27869;51.442;7.540;2023-03-01T10:34:46;3.90;99.90
42201;DHT22;27869;51.442;7.540;2023-03-01T10:37:15;4.00;99.90
42201;DHT22;27869;51.442;7.540;2023-03-01T10:39:57;4.00;99.90
42201;DHT22;27869;51.442;7.540;2023-03-01T10:42:29;4.10;99.90
42201;DHT22;27869;51.442;7.540;2023-03-01T10:44:57;4.10;99.90
42201;DHT22;27869;51.442;7.540;2023-03-01T10:47:26;4.20;99.90
42201;DHT22;27869;51.442;7.540;2023-03-01T10:49:57;4.30;99.90
42201;DHT22;27869;51.442;7.540;2023-03-01T10:52:28;4.40;99.90
42201;DHT22;27869;51.442;7.540;2023-03-01T10:54:57;4.50;99.90
42201;DHT22;27869;51.442;7.540;2023-03-01T10:57:33;4.60;99.90
42201;DHT22;27869;51.442;7.540;2023-03-01T11:00:21;4.60;99.90
42201;DHT22;27869;51.442;7.540;2023-03-01T11:02:50;4.70;99.90
42201;DHT22;27869;51.442;7.540;2023-03-01T11:05:22;4.80;99.90
42201;DHT22;27869;51.442;7.540;2023-03-01T11:07:55;4.80;99.90
42201;DHT22;27869;51.442;7.540;2023-03-01T11:10:25;4.90;99.90
42201;DHT22;27869;51.442;7.540;2023-03-01T11:12:53;4.90;99.90
42201;DHT22;27869;51.442;7.540;2023-03-01T11:15:25;5.00;99.90
42201;DHT22;27869;51.442;7.540;2023-03-01T11:17:53;5.00;99.90
42201;DHT22;27869;51.442;7.540;2023-03-01T11:20:27;5.00;99.90
42201;DHT22;27869;51.442;7.540;2023-03-01T11:22:56;5.10;99.90
42201;DHT22;27869;51.442;7.540;2023-03-01T11:25:25;5.10;99.90
42201;DHT22;27869;51.442;7.540;2023-03-01T11:27:53;5.10;99.90
42201;DHT22;27869;51.442;7.540;2023-03-01T11:30:24;5.10;99.90
42201;DHT22;27869;51.442;7.540;2023-03-01T11:33:01;5.20;99.90
42201;DHT22;27869;51.442;7.540;2023-03-01T11:35:32;5.20;99.90
42201;DHT22;27869;51.442;7.540;2023-03-01T11:38:09;5.20;99.90
42201;DHT22;27869;51.442;7.540;2023-03-01T11:40:45;5.20;99.90
42201;DHT22;27869;51.442;7.540;2023-03-01T11:43:19;5.20;99.90
42201;DHT22;27869;51.442;7.540;2023-03-01T11:46:01;5.30;99.90
42201;DHT22;27869;51.442;7.540;2023-03-01T11:48:45;5.40;99.90
42201;DHT22;27869;51.442;7.540;2023-03-01T11:51:21;5.40;99.90
42201;DHT22;27869;51.442;7.540;2023-03-01T11:54:00;5.40;99.90
42201;DHT22;27869;51.442;7.540;2023-03-01T11:56:31;5.40;99.90
42201;DHT22;27869;51.442;7.540;2023-03-01T12:02:36;5.40;99.90
42201;DHT22;27869;51.442;7.540;2023-03-01T12:08:11;5.40;99.90
42201;DHT22;27869;51.442;7.540;2023-03-01T12:10:48;5.40;99.90
42201;DHT22;27869;51.442;7.540;2023-03-01T12:13:48;5.40;99.90
42201;DHT22;27869;51.442;7.540;2023-03-01T12:16:37;5.40;99.90
42201;DHT22;27869;51.442;7.540;2023-03-01T12:19:25;5.40;99.90
42201;DHT22;27869;51.442;7.540;2023-03-01T12:22:09;5.50;99.90
42201;DHT22;27869;51.442;7.540;2023-03-01T12:24:52;5.40;99.90
42201;DHT22;27869;51.442;7.540;2023-03-01T12:27:42;5.50;99.90
42201;DHT22;27869;51.442;7.540;2023-03-01T12:30:23;5.40;99.90
42201;DHT22;27869;51.442;7.540;2023-03-01T12:33:03;5.50;99.90
42201;DHT22;27869;51.442;7.540;2023-03-01T12:36:15;5.40;99.90
42201;DHT22;27869;51.442;7.540;2023-03-01T12:38:50;5.40;99.90
42201;DHT22;27869;51.442;7.540;2023-03-01T12:41:41;5.30;99.90
42201;DHT22;27869;51.442;7.540;2023-03-01T12:44:29;5.40;99.90
42201;DHT22;27869;51.442;7.540;2023-03-01T12:47:09;5.30;99.90
42201;DHT22;27869;51.442;7.540;2023-03-01T12:49:40;5.30;99.90
42201;DHT22;27869;51.442;7.540;2023-03-01T12:52:12;5.30;99.90
42201;DHT22;27869;51.442;7.540;2023-03-01T12:54:41;5.30;99.90
42201;DHT22;27869;51.442;7.540;2023-03-01T12:57:17;5.30;99.90
42201;DHT22;27869;51.442;7.540;2023-03-01T12:59:51;5.30;99.90
42201;DHT22;27869;51.442;7.540;2023-03-01T13:02:24;5.30;99.90
42201;DHT22;27869;51.442;7.540;2023-03-01T13:05:16;5.30;99.90
42201;DHT22;27869;51.442;7.540;2023-03-01T13:07:53;5.40;99.90
42201;DHT22;27869;51.442;7.540;2023-03-01T13:10:24;5.40;99.90
42201;DHT22;27869;51.442;7.540;2023-03-01T13:13:08;5.40;99.90
42201;DHT22;27869;51.442;7.540;2023-03-01T13:15:38;5.40;99.90
42201;DHT22;27869;51.442;7.540;2023-03-01T13:18:31;5.40;99.90
42201;DHT22;27869;51.442;7.540;2023-03-01T13:21:01;5.40;99.90
42201;DHT22;27869;51.442;7.540;2023-03-01T13:23:31;5.50;99.90
42201;DHT22;27869;51.442;7.540;2023-03-01T13:26:05;5.50;99.90
42201;DHT22;27869;51.442;7.540;2023-03-01T13:28:52;5.50;99.90
42201;DHT22;27869;51.442;7.540;2023-03-01T13:34:52;5.60;99.90
42201;DHT22;27869;51.442;7.540;2023-03-01T13:37:22;5.60;99.90
42201;DHT22;27869;51.442;7.540;2023-03-01T13:39:50;5.60;99.90
42201;DHT22;27869;51.442;7.540;2023-03-01T13:42:42;5.60;99.90
42201;DHT22;27869;51.442;7.540;2023-03-01T13:45:20;5.70;99.90
42201;DHT22;27869;51.442;7.540;2023-03-01T13:47:53;5.60;99.90
42201;DHT22;27869;51.442;7.540;2023-03-01T13:50:23;5.60;99.90
42201;DHT22;27869;51.442;7.540;2023-03-01T13:52:54;5.70;99.90
42201;DHT22;27869;51.442;7.540;2023-03-01T13:55:27;5.70;99.90
42201;DHT22;27869;51.442;7.540;2023-03-01T13:57:59;5.70;99.90
42201;DHT22;27869;51.442;7.540;2023-03-01T14:00:34;5.70;99.90
42201;DHT22;27869;51.442;7.540;2023-03-01T14:03:13;5.70;99.90
42201;DHT22;27869;51.442;7.540;2023-03-01T14:05:41;5.70;99.90
42201;DHT22;27869;51.442;7.540;2023-03-01T14:08:20;5.80;99.90
42201;DHT22;27869;51.442;7.540;2023-03-01T14:11:13;5.80;99.90
42201;DHT22;27869;51.442;7.540;2023-03-01T14:13:52;5.80;99.90
42201;DHT22;27869;51.442;7.540;2023-03-01T14:16:31;5.80;99.90
42201;DHT22;27869;51.442;7.540;2023-03-01T14:19:09;5.80;99.90
42201;DHT22;27869;51.442;7.540;2023-03-01T14:21:40;5.80;99.90
42201;DHT22;27869;51.442;7.540;2023-03-01T14:24:17;5.80;99.90
42201;DHT22;27869;51.442;7.540;2023-03-01T14:26:44;5.80;99.90
42201;DHT22;27869;51.442;7.540;2023-03-01T14:29:24;5.80;99.90
42201;DHT22;27869;51.442;7.540;2023-03-01T14:31:52;5.80;99.90
42201;DHT22;27869;51.442;7.540;2023-03-01T14:34:24;5.80;99.90
42201;DHT22;27869;51.442;7.540;2023-03-01T14:36:51;5.80;99.90
42201;DHT22;27869;51.442;7.540;2023-03-01T14:39:22;5.80;99.90
42201;DHT22;27869;51.442;7.540;2023-03-01T14:41:51;5.80;99.90
42201;DHT22;27869;51.442;7.540;2023-03-01T14:44:22;5.80;99.90
42201;DHT22;27869;51.442;7.540;2023-03-01T14:46:55;5.80;99.90
42201;DHT22;27869;51.442;7.540;2023-03-01T14:49:25;5.90;99.90
42201;DHT22;27869;51.442;7.540;2023-03-01T14:51:57;5.90;99.90
42201;DHT22;27869;51.442;7.540;2023-03-01T14:54:27;5.90;99.90
42201;DHT22;27869;51.442;7.540;2023-03-01T14:56:57;5.90;99.90
42201;DHT22;27869;51.442;7.540;2023-03-01T14:59:25;5.90;99.90
42201;DHT22;27869;51.442;7.540;2023-03-01T15:01:57;5.90;99.90
42201;DHT22;27869;51.442;7.540;2023-03-01T15:04:26;5.90;99.90
42201;DHT22;27869;51.442;7.540;2023-03-01T15:06:54;6.00;99.90
42201;DHT22;27869;51.442;7.540;2023-03-01T15:09:22;6.00;99.90
42201;DHT22;27869;51.442;7.540;2023-03-01T15:11:49;6.00;99.90
42201;DHT22;27869;51.442;7.540;2023-03-01T15:14:26;6.00;99.90
42201;DHT22;27869;51.442;7.540;2023-03-01T15:16:55;6.00;99.90
42201;DHT22;27869;51.442;7.540;2023-03-01T15:19:24;6.00;99.90
42201;DHT22;27869;51.442;7.540;2023-03-01T15:21:55;6.00;99.90
42201;DHT22;27869;51.442;7.540;2023-03-01T15:24:24;6.00;99.90
42201;DHT22;27869;51.442;7.540;2023-03-01T15:26:56;6.00;99.90
42201;DHT22;27869;51.442;7.540;2023-03-01T15:29:25;6.10;99.90
42201;DHT22;27869;51.442;7.540;2023-03-01T15:31:58;6.20;99.90
42201;DHT22;27869;51.442;7.540;2023-03-01T15:34:27;6.20;99.90
42201;DHT22;27869;51.442;7.540;2023-03-01T15:36:55;6.20;99.90
42201;DHT22;27869;51.442;7.540;2023-03-01T15:39:35;6.30;99.90
42201;DHT22;27869;51.442;7.540;2023-03-01T15:42:05;6.30;99.90
42201;DHT22;27869;51.442;7.540;2023-03-01T15:44:34;6.30;99.90
42201;DHT22;27869;51.442;7.540;2023-03-01T15:47:06;6.30;99.90
42201;DHT22;27869;51.442;7.540;2023-03-01T15:49:37;6.30;99.90
42201;DHT22;27869;51.442;7.540;2023-03-01T15:52:08;6.30;99.90
42201;DHT22;27869;51.442;7.540;2023-03-01T15:54:39;6.20;99.90
42201;DHT22;27869;51.442;7.540;2023-03-01T15:57:10;6.20;99.10
42201;DHT22;27869;51.442;7.540;2023-03-01T15:59:38;6.20;99.90
42201;DHT22;27869;51.442;7.540;2023-03-01T16:02:10;6.20;99.90
42201;DHT22;27869;51.442;7.540;2023-03-01T16:04:38;6.10;99.90
42201;DHT22;27869;51.442;7.540;2023-03-01T16:07:06;6.10;99.90
42201;DHT22;27869;51.442;7.540;2023-03-01T16:09:33;6.10;99.90